| time (UTC) | temp F | wind direction | speed MPH | gust MPH | rain 1hr in | rain 24hr in | rain mn in | humidity % | barometer mb |
| 20260510153756 | 46 | 359 | 11.0 | 19.0 | 0.00 | 0.00 | 0.00 | 57 | 1020.3 |
| 20260510153257 | 46 | 359 | 10.0 | 18.0 | 0.00 | 0.00 | 0.00 | 54 | 1020.2 |
| 20260510152756 | 47 | 342 | 11.0 | 18.0 | 0.00 | 0.00 | 0.00 | 51 | 1020.1 |
| 20260510152256 | 46 | 342 | 10.0 | 22.0 | 0.00 | 0.00 | 0.00 | 54 | 1020.0 |
| 20260510151756 | 47 | 344 | 9.0 | 22.0 | 0.00 | 0.00 | 0.00 | 48 | 1020.1 |
| 20260510151257 | 46 | 342 | 10.0 | 21.0 | 0.00 | 0.00 | 0.00 | 48 | 1020.0 |
| 20260510151027 | 46 | 352 | 12.0 | 19.0 | 0.00 | 0.00 | 0.00 | 51 | 1020.0 |
| 20260510150256 | 46 | 330 | 14.0 | 22.0 | 0.00 | 0.00 | 0.00 | 52 | 1020.2 |
| 20260510145756 | 46 | 352 | 15.0 | 22.0 | 0.00 | 0.00 | 0.00 | 53 | 1020.0 |
| 20260510145256 | 46 | 342 | 12.0 | 20.0 | 0.00 | 0.00 | 0.00 | 56 | 1019.9 |
| 20260510144758 | 46 | 347 | 10.0 | 19.0 | 0.00 | 0.00 | 0.00 | 53 | 1019.8 |
| 20260510144256 | 46 | 337 | 11.0 | 19.0 | 0.00 | 0.00 | 0.00 | 51 | 1019.9 |
| 20260510143756 | 46 | 323 | 11.0 | 19.0 | 0.00 | 0.00 | 0.00 | 50 | 1020.0 |
| 20260510143254 | 46 | 351 | 10.0 | 20.0 | 0.00 | 0.00 | 0.00 | 54 | 1019.9 |
| 20260510142755 | 46 | 347 | 12.0 | 20.0 | 0.00 | 0.00 | 0.00 | 52 | 1019.9 |
| 20260510142255 | 46 | 340 | 11.0 | 20.0 | 0.00 | 0.00 | 0.00 | 56 | 1019.8 |
| 20260510141749 | 46 | 335 | 11.0 | 19.0 | 0.00 | 0.00 | 0.00 | 50 | 1019.7 |
| 20260510141243 | 46 | 326 | 12.0 | 19.0 | 0.00 | 0.00 | 0.00 | 57 | 1019.7 |
| 20260510140737 | 46 | 348 | 12.0 | 18.0 | 0.00 | 0.00 | 0.00 | 59 | 1019.7 |
| 20260510140230 | 46 | 333 | 12.0 | 19.0 | 0.00 | 0.00 | 0.00 | 55 | 1019.7 |
| 20260510135729 | 45 | 350 | 14.0 | 19.0 | 0.00 | 0.00 | 0.00 | 56 | 1019.6 |
| 20260510135229 | 46 | 335 | 14.0 | 20.0 | 0.00 | 0.00 | 0.00 | 56 | 1019.7 |
| 20260510134735 | 46 | 316 | 6.0 | 15.0 | 0.00 | 0.00 | 0.00 | 49 | 1019.6 |
| 20260510134728 | 46 | 358 | 10.0 | 20.0 | 0.00 | 0.00 | 0.00 | 55 | 1019.6 |
| 20260510133730 | 46 | 335 | 7.0 | 18.0 | 0.00 | 0.00 | 0.00 | 49 | 1019.5 |
| 20260510133228 | 46 | 341 | 8.0 | 18.0 | 0.00 | 0.00 | 0.00 | 49 | 1019.5 |
| 20260510133000 | 46 | 322 | 9.0 | 20.0 | 0.00 | 0.00 | 0.00 | 50 | 1019.5 |
| 20260510132229 | 45 | 312 | 8.0 | 17.0 | 0.00 | 0.00 | 0.00 | 51 | 1019.5 |
| 20260510132224 | 46 | 351 | 9.0 | 20.0 | 0.00 | 0.00 | 0.00 | 54 | 1019.6 |
| 20260510131226 | 46 | 352 | 7.0 | 15.0 | 0.00 | 0.00 | 0.00 | 52 | 1019.4 |
| 20260510130725 | 45 | 292 | 8.0 | 19.0 | 0.00 | 0.00 | 0.00 | 51 | 1019.4 |
| 20260510130225 | 45 | 309 | 9.0 | 19.0 | 0.00 | 0.00 | 0.00 | 51 | 1019.4 |
| 20260510125725 | 45 | 348 | 7.0 | 15.0 | 0.00 | 0.00 | 0.00 | 53 | 1019.3 |
| 20260510125224 | 45 | 330 | 10.0 | 17.0 | 0.00 | 0.00 | 0.00 | 54 | 1019.3 |
| 20260510124726 | 45 | 330 | 11.0 | 22.0 | 0.00 | 0.00 | 0.00 | 57 | 1019.3 |
| 20260510124226 | 45 | 338 | 9.0 | 22.0 | 0.00 | 0.00 | 0.00 | 57 | 1019.2 |
| 20260510123720 | 45 | 49 | 7.0 | 13.0 | 0.00 | 0.00 | 0.00 | 58 | 1019.1 |
| 20260510123445 | 45 | 343 | 6.0 | 13.0 | 0.00 | 0.00 | 0.00 | 57 | 1019.1 |
| 20260510122708 | 45 | 307 | 5.0 | 12.0 | 0.00 | 0.00 | 0.00 | 59 | 1019.0 |
| 20260510122202 | 45 | 345 | 5.0 | 12.0 | 0.00 | 0.00 | 0.00 | 59 | 1018.8 |
| 20260510121656 | 45 | 18 | 6.0 | 12.0 | 0.00 | 0.00 | 0.00 | 61 | 1018.8 |
| 20260510121150 | 44 | 345 | 7.0 | 13.0 | 0.00 | 0.00 | 0.00 | 63 | 1018.7 |
| 20260510120644 | 44 | 336 | 7.0 | 13.0 | 0.00 | 0.00 | 0.00 | 65 | 1018.7 |
| 20260510120138 | 44 | 342 | 7.0 | 13.0 | 0.00 | 0.00 | 0.00 | 67 | 1018.7 |
| 20260510115632 | 44 | 350 | 6.0 | 12.0 | 0.00 | 0.00 | 0.00 | 71 | 1018.6 |
| 20260510115126 | 43 | 332 | 5.0 | 10.0 | 0.00 | 0.00 | 0.00 | 72 | 1018.5 |
| 20260510114623 | 43 | 357 | 5.0 | 12.0 | 0.00 | 0.00 | 0.00 | 72 | 1018.5 |
| 20260510114617 | 43 | 331 | 7.0 | 15.0 | 0.00 | 0.00 | 0.00 | 73 | 1018.5 |
| 20260510113608 | 43 | 356 | 6.0 | 15.0 | 0.00 | 0.00 | 0.00 | 71 | 1018.5 |
| 20260510113102 | 44 | 347 | 4.0 | 11.0 | 0.00 | 0.00 | 0.00 | 71 | 1018.4 |
| 20260510112557 | 44 | 348 | 3.0 | 7.0 | 0.00 | 0.00 | 0.00 | 69 | 1018.3 |
| 20260510112050 | 44 | 1 | 3.0 | 7.0 | 0.00 | 0.00 | 0.00 | 70 | 1018.2 |
| 20260510111815 | 44 | 304 | 2.0 | 5.0 | 0.00 | 0.00 | 0.00 | 71 | 1018.1 |
| 20260510111039 | 43 | 335 | 2.0 | 4.0 | 0.00 | 0.00 | 0.00 | 71 | 1018.0 |
| 20260510110532 | 43 | 329 | 2.0 | 4.0 | 0.00 | 0.00 | 0.00 | 72 | 1017.9 |
| 20260510110025 | 42 | 307 | 1.0 | 4.0 | 0.00 | 0.00 | 0.00 | 72 | 1017.8 |
| 20260510105518 | 42 | 300 | 1.0 | 5.0 | 0.00 | 0.00 | 0.00 | 73 | 1017.7 |
| 20260510105012 | 42 | 304 | 1.0 | 5.0 | 0.00 | 0.00 | 0.00 | 73 | 1017.6 |
| 20260510104506 | 42 | 7 | 1.0 | 4.0 | 0.00 | 0.00 | 0.00 | 73 | 1017.6 |
| 20260510104000 | 42 | 304 | 1.0 | 7.0 | 0.00 | 0.00 | 0.00 | 73 | 1017.5 |
| 20260510103454 | 41 | 302 | 1.0 | 7.0 | 0.00 | 0.00 | 0.00 | 73 | 1017.3 |
| 20260510102949 | 41 | 316 | 0.0 | 5.0 | 0.00 | 0.00 | 0.00 | 73 | 1017.3 |
| 20260510102443 | 41 | 321 | 0.0 | 3.0 | 0.00 | 0.00 | 0.00 | 73 | 1017.3 |
| 20260510102208 | 41 | 299 | 0.0 | 3.0 | 0.00 | 0.00 | 0.00 | 73 | 1017.1 |
| 20260510101430 | 41 | 320 | 0.0 | 3.0 | 0.00 | 0.00 | 0.00 | 73 | 1017.1 |
| 20260510100924 | 41 | 306 | 0.0 | 3.0 | 0.00 | 0.00 | 0.00 | 73 | 1016.9 |
| 20260510100418 | 41 | 299 | 0.0 | 3.0 | 0.00 | 0.00 | 0.00 | 73 | 1016.9 |
| 20260510095911 | 41 | 356 | 0.0 | 3.0 | 0.00 | 0.00 | 0.00 | 73 | 1016.9 |
| 20260510095406 | 40 | 332 | 0.0 | 3.0 | 0.00 | 0.00 | 0.00 | 73 | 1016.8 |
| 20260510094900 | 40 | 300 | 0.0 | 2.0 | 0.00 | 0.00 | 0.00 | 73 | 1016.8 |
| 20260510094354 | 40 | 302 | 0.0 | 1.0 | 0.00 | 0.00 | 0.00 | 73 | 1016.7 |
| 20260510094119 | 40 | 295 | 0.0 | 0.0 | 0.00 | 0.00 | 0.00 | 73 | 1016.7 |
| 20260510093342 | 40 | 292 | 0.0 | 0.0 | 0.00 | 0.00 | 0.00 | 72 | 1016.6 |
| 20260510092836 | 40 | 292 | 0.0 | 0.0 | 0.00 | 0.00 | 0.00 | 72 | 1016.6 |
| 20260510092601 | 40 | 292 | 0.0 | 0.0 | 0.00 | 0.00 | 0.00 | 72 | 1016.6 |
| 20260510091824 | 40 | 292 | 0.0 | 0.0 | 0.00 | 0.00 | 0.00 | 72 | 1016.6 |
| 20260510091318 | 40 | 292 | 0.0 | 0.0 | 0.00 | 0.00 | 0.00 | 71 | 1016.5 |
| 20260510090812 | 40 | 293 | 0.0 | 0.0 | 0.00 | 0.00 | 0.00 | 70 | 1016.5 |
| 20260510090306 | 40 | 293 | 0.0 | 0.0 | 0.00 | 0.01 | 0.00 | 70 | 1016.4 |
| 20260510085800 | 41 | 293 | 0.0 | 0.0 | 0.00 | 0.01 | 0.00 | 69 | 1016.3 |
| 20260510085254 | 41 | 293 | 0.0 | 1.0 | 0.00 | 0.01 | 0.00 | 68 | 1016.3 |
| 20260510084748 | 41 | 293 | 0.0 | 1.0 | 0.00 | 0.01 | 0.00 | 67 | 1016.2 |
| 20260510084242 | 41 | 326 | 0.0 | 0.0 | 0.00 | 0.01 | 0.00 | 66 | 1016.1 |
| 20260510083736 | 42 | 327 | 0.0 | 1.0 | 0.00 | 0.01 | 0.00 | 66 | 1016.1 |
| 20260510083230 | 42 | 326 | 0.0 | 1.0 | 0.00 | 0.02 | 0.00 | 65 | 1016.0 |
| 20260510082724 | 42 | 338 | 0.0 | 2.0 | 0.00 | 0.03 | 0.00 | 65 | 1016.0 |
| 20260510082219 | 42 | 355 | 0.0 | 2.0 | 0.00 | 0.04 | 0.00 | 65 | 1016.0 |
| 20260510081712 | 42 | 345 | 1.0 | 3.0 | 0.00 | 0.06 | 0.00 | 65 | 1016.1 |
| 20260510081437 | 42 | 326 | 2.0 | 4.0 | 0.00 | 0.08 | 0.00 | 65 | 1016.1 |
| 20260510080700 | 42 | 325 | 2.0 | 5.0 | 0.00 | 0.09 | 0.00 | 65 | 1016.1 |
| 20260510080425 | 42 | 328 | 2.0 | 5.0 | 0.00 | 0.11 | 0.00 | 66 | 1016.1 |
| 20260510075648 | 42 | 340 | 1.0 | 5.0 | 0.00 | 0.12 | 0.00 | 66 | 1016.1 |
| 20260510075413 | 42 | 339 | 1.0 | 4.0 | 0.00 | 0.13 | 0.00 | 67 | 1015.8 |
| 20260510074636 | 42 | 329 | 1.0 | 3.0 | 0.00 | 0.14 | 0.00 | 67 | 1015.7 |
| 20260510074404 | 42 | 345 | 1.0 | 3.0 | 0.00 | 0.15 | 0.00 | 67 | 1015.8 |
| 20260510073632 | 42 | 335 | 1.0 | 4.0 | 0.00 | 0.16 | 0.00 | 67 | 1015.7 |
| 20260510073132 | 41 | 331 | 1.0 | 4.0 | 0.00 | 0.16 | 0.00 | 68 | 1015.7 |
| 20260510072632 | 41 | 317 | 0.0 | 3.0 | 0.00 | 0.16 | 0.00 | 69 | 1015.6 |
| 20260510072131 | 40 | 326 | 0.0 | 3.0 | 0.00 | 0.16 | 0.00 | 72 | 1015.4 |
| 20260510071633 | 40 | 240 | 0.0 | 0.0 | 0.00 | 0.16 | 0.00 | 72 | 1015.3 |
| 20260510071129 | 39 | 240 | 0.0 | 0.0 | 0.00 | 0.16 | 0.00 | 73 | 1015.3 |
| 20260510070628 | 39 | 240 | 0.0 | 0.0 | 0.00 | 0.16 | 0.00 | 73 | 1015.3 |
| 20260510070127 | 39 | 240 | 0.0 | 0.0 | 0.00 | 0.16 | 0.00 | 73 | 1015.3 |
| 20260510065854 | 38 | 240 | 0.0 | 0.0 | 0.00 | 0.16 | 0.00 | 72 | 1015.2 |
| 20260510065354 | 39 | 240 | 0.0 | 1.0 | 0.00 | 0.16 | 0.00 | 71 | 1015.1 |
| 20260510064625 | 38 | 240 | 0.0 | 1.0 | 0.00 | 0.16 | 0.00 | 71 | 1015.2 |
| 20260510064355 | 38 | 256 | 0.0 | 1.0 | 0.00 | 0.16 | 0.00 | 71 | 1015.2 |
| 20260510063625 | 38 | 240 | 0.0 | 1.0 | 0.00 | 0.16 | 0.00 | 71 | 1015.1 |
| 20260510063124 | 38 | 233 | 0.0 | 1.0 | 0.00 | 0.16 | 0.00 | 71 | 1015.0 |
| 20260510062624 | 38 | 238 | 0.0 | 0.0 | 0.00 | 0.16 | 0.00 | 70 | 1015.0 |
| 20260510062122 | 38 | 230 | 0.0 | 0.0 | 0.00 | 0.16 | 0.00 | 69 | 1015.1 |
| 20260510061619 | 38 | 231 | 0.0 | 0.0 | 0.00 | 0.16 | 0.00 | 69 | 1015.0 |
| 20260510061120 | 38 | 231 | 0.0 | 0.0 | 0.00 | 0.16 | 0.00 | 69 | 1015.0 |
| 20260510060615 | 38 | 228 | 0.0 | 0.0 | 0.00 | 0.16 | 0.00 | 68 | 1015.1 |
| 20260510060111 | 39 | 228 | 0.0 | 0.0 | 0.00 | 0.16 | 0.00 | 69 | 1015.1 |
| 20260510060105 | 40 | 228 | 0.0 | 0.0 | 0.00 | 0.16 | 0.00 | 69 | 1015.0 |
| 20260510055332 | 40 | 228 | 0.0 | 0.0 | 0.00 | 0.16 | 0.00 | 66 | 1015.0 |
| 20260510054601 | 40 | 228 | 0.0 | 0.0 | 0.00 | 0.16 | 0.00 | 67 | 1015.0 |
| 20260510054334 | 40 | 228 | 0.0 | 0.0 | 0.00 | 0.16 | 0.00 | 69 | 1015.0 |
| 20260510053602 | 40 | 228 | 0.0 | 0.0 | 0.00 | 0.16 | 0.00 | 64 | 1014.9 |
| 20260510053102 | 40 | 228 | 0.0 | 0.0 | 0.00 | 0.16 | 0.00 | 60 | 1014.8 |
| 20260510052603 | 41 | 228 | 0.0 | 0.0 | 0.00 | 0.16 | 0.00 | 60 | 1014.8 |
| 20260510052333 | 41 | 228 | 0.0 | 0.0 | 0.00 | 0.16 | 0.00 | 59 | 1014.7 |
| 20260510051602 | 41 | 228 | 0.0 | 0.0 | 0.00 | 0.16 | 0.00 | 59 | 1014.8 |
| 20260510051103 | 41 | 228 | 0.0 | 1.0 | 0.00 | 0.16 | 0.00 | 59 | 1014.7 |
| 20260510050058 | 40 | 233 | 0.0 | 1.0 | 0.00 | 0.16 | 0.00 | 59 | 1014.7 |
| 20260510045557 | 40 | 230 | 0.0 | 1.0 | 0.00 | 0.16 | 0.16 | 59 | 1014.7 |
| 20260510045103 | 40 | 232 | 0.0 | 0.0 | 0.00 | 0.16 | 0.16 | 60 | 1014.6 |
| 20260510045057 | 40 | 245 | 0.0 | 1.0 | 0.00 | 0.16 | 0.16 | 59 | 1014.7 |
| 20260510044059 | 40 | 232 | 0.0 | 1.0 | 0.00 | 0.16 | 0.16 | 60 | 1014.6 |
| 20260510043830 | 40 | 230 | 0.0 | 1.0 | 0.00 | 0.16 | 0.16 | 61 | 1014.6 |
| 20260510043057 | 40 | 234 | 0.0 | 1.0 | 0.00 | 0.16 | 0.16 | 61 | 1014.6 |
| 20260510042559 | 40 | 238 | 0.0 | 1.0 | 0.00 | 0.16 | 0.16 | 61 | 1014.6 |
| 20260510042053 | 41 | 233 | 0.0 | 1.0 | 0.00 | 0.16 | 0.16 | 60 | 1014.5 |
| 20260510041553 | 41 | 233 | 0.0 | 1.0 | 0.00 | 0.16 | 0.16 | 60 | 1014.5 |
| 20260510041055 | 41 | 240 | 0.0 | 1.0 | 0.00 | 0.16 | 0.16 | 58 | 1014.5 |
| 20260510040826 | 42 | 233 | 0.0 | 1.0 | 0.00 | 0.16 | 0.16 | 57 | 1014.4 |
| 20260510040053 | 42 | 233 | 0.0 | 0.0 | 0.00 | 0.16 | 0.16 | 56 | 1014.4 |
| 20260510035556 | 42 | 242 | 0.0 | 0.0 | 0.00 | 0.16 | 0.16 | 57 | 1014.4 |
| 20260510035055 | 43 | 242 | 0.0 | 0.0 | 0.00 | 0.16 | 0.16 | 55 | 1014.3 |
| 20260510034827 | 43 | 252 | 0.0 | 0.0 | 0.00 | 0.16 | 0.16 | 54 | 1014.3 |
| 20260510034056 | 43 | 278 | 0.0 | 0.0 | 0.00 | 0.16 | 0.16 | 53 | 1014.3 |
| 20260510033547 | 44 | 291 | 0.0 | 0.0 | 0.00 | 0.16 | 0.16 | 52 | 1014.3 |
| 20260510033313 | 44 | 297 | 0.0 | 0.0 | 0.00 | 0.16 | 0.16 | 51 | 1014.3 |
| 20260510032537 | 45 | 297 | 0.0 | 0.0 | 0.00 | 0.16 | 0.16 | 49 | 1014.3 |
| 20260510032031 | 45 | 297 | 0.0 | 0.0 | 0.00 | 0.16 | 0.16 | 48 | 1014.2 |
| 20260510031525 | 45 | 297 | 0.0 | 0.0 | 0.00 | 0.16 | 0.16 | 49 | 1014.2 |
| 20260510031019 | 46 | 312 | 0.0 | 0.0 | 0.00 | 0.16 | 0.16 | 48 | 1014.2 |
| 20260510030513 | 46 | 312 | 0.0 | 0.0 | 0.00 | 0.16 | 0.16 | 47 | 1014.1 |
| 20260510030238 | 47 | 313 | 0.0 | 2.0 | 0.00 | 0.16 | 0.16 | 46 | 1014.0 |
| 20260510025501 | 47 | 312 | 0.0 | 2.0 | 0.00 | 0.16 | 0.16 | 45 | 1014.0 |
| 20260510025000 | 48 | 310 | 0.0 | 2.0 | 0.00 | 0.16 | 0.16 | 45 | 1014.0 |
| 20260510024457 | 48 | 316 | 1.0 | 3.0 | 0.00 | 0.16 | 0.16 | 45 | 1014.0 |
| 20260510023957 | 48 | 356 | 1.0 | 5.0 | 0.00 | 0.16 | 0.16 | 45 | 1013.9 |
| 20260510023457 | 49 | 327 | 2.0 | 6.0 | 0.00 | 0.16 | 0.16 | 45 | 1013.8 |
| 20260510022956 | 49 | 351 | 1.0 | 6.0 | 0.00 | 0.16 | 0.16 | 47 | 1013.7 |
| 20260510022455 | 49 | 327 | 1.0 | 4.0 | 0.00 | 0.16 | 0.16 | 45 | 1013.6 |
| 20260510021956 | 49 | 309 | 2.0 | 6.0 | 0.00 | 0.16 | 0.16 | 43 | 1013.6 |
| 20260510021726 | 50 | 335 | 3.0 | 9.0 | 0.00 | 0.16 | 0.16 | 44 | 1013.5 |
| 20260510020953 | 50 | 326 | 5.0 | 10.0 | 0.00 | 0.16 | 0.16 | 48 | 1013.4 |
| 20260510020454 | 50 | 340 | 4.0 | 10.0 | 0.00 | 0.16 | 0.16 | 42 | 1013.2 |
| 20260510020450 | 50 | 359 | 5.0 | 10.0 | 0.00 | 0.16 | 0.16 | 46 | 1013.3 |
| 20260510015451 | 51 | 327 | 4.0 | 7.0 | 0.00 | 0.16 | 0.16 | 43 | 1013.1 |
| 20260510014951 | 51 | 317 | 5.0 | 11.0 | 0.00 | 0.16 | 0.16 | 42 | 1013.1 |
| 20260510014451 | 51 | 327 | 5.0 | 11.0 | 0.00 | 0.16 | 0.16 | 42 | 1013.0 |
| 20260510013949 | 51 | 315 | 4.0 | 11.0 | 0.00 | 0.16 | 0.16 | 42 | 1012.7 |
| 20260510013448 | 51 | 304 | 4.0 | 9.0 | 0.00 | 0.16 | 0.16 | 41 | 1012.7 |
| 20260510012949 | 51 | 2 | 6.0 | 14.0 | 0.00 | 0.16 | 0.16 | 44 | 1012.6 |
| 20260510012448 | 52 | 329 | 5.0 | 14.0 | 0.00 | 0.16 | 0.16 | 41 | 1012.5 |
| 20260510011942 | 52 | 323 | 5.0 | 13.0 | 0.00 | 0.16 | 0.16 | 43 | 1012.4 |
| 20260510011435 | 52 | 347 | 6.0 | 13.0 | 0.00 | 0.16 | 0.16 | 40 | 1012.3 |
| 20260510010930 | 52 | 326 | 6.0 | 16.0 | 0.00 | 0.16 | 0.16 | 39 | 1012.1 |
| 20260510010424 | 52 | 5 | 7.0 | 16.0 | 0.00 | 0.16 | 0.16 | 42 | 1012.0 |
| 20260510010148 | 53 | 324 | 10.0 | 16.0 | 0.00 | 0.16 | 0.16 | 43 | 1012.0 |
| 20260510005645 | 53 | 340 | 11.0 | 18.0 | 0.00 | 0.16 | 0.16 | 43 | 1011.8 |
| 20260510004905 | 53 | 316 | 12.0 | 19.0 | 0.00 | 0.16 | 0.16 | 41 | 1011.8 |
| 20260510004359 | 53 | 3 | 11.0 | 19.0 | 0.00 | 0.16 | 0.16 | 44 | 1011.6 |
| 20260510003853 | 53 | 33 | 8.0 | 19.0 | 0.00 | 0.16 | 0.16 | 45 | 1011.6 |
| 20260510003348 | 54 | 330 | 8.0 | 13.0 | 0.00 | 0.16 | 0.16 | 40 | 1011.5 |
| 20260510002842 | 54 | 347 | 9.0 | 16.0 | 0.00 | 0.16 | 0.16 | 39 | 1011.4 |
| 20260510002336 | 54 | 352 | 10.0 | 19.0 | 0.00 | 0.16 | 0.16 | 43 | 1011.3 |
| 20260510001830 | 54 | 318 | 10.0 | 19.0 | 0.00 | 0.16 | 0.16 | 37 | 1011.4 |
| 20260510001323 | 54 | 326 | 10.0 | 22.0 | 0.00 | 0.16 | 0.16 | 43 | 1011.3 |
| 20260510001049 | 55 | 342 | 10.0 | 22.0 | 0.00 | 0.16 | 0.16 | 39 | 1011.2 |
| 20260510000312 | 55 | 293 | 9.0 | 20.0 | 0.00 | 0.16 | 0.16 | 37 | 1011.2 |
| 20260510000038 | 55 | 304 | 8.0 | 16.0 | 0.00 | 0.16 | 0.16 | 38 | 1011.1 |
| 20260509235300 | 55 | 300 | 7.0 | 14.0 | 0.00 | 0.16 | 0.16 | 37 | 1011.0 |
| 20260509235026 | 55 | 347 | 8.0 | 14.0 | 0.00 | 0.16 | 0.16 | 35 | 1010.9 |
| 20260509234248 | 55 | 349 | 8.0 | 14.0 | 0.00 | 0.16 | 0.16 | 37 | 1010.8 |
| 20260509233742 | 55 | 338 | 6.0 | 14.0 | 0.00 | 0.16 | 0.16 | 39 | 1010.8 |
| 20260509233507 | 55 | 343 | 8.0 | 17.0 | 0.00 | 0.16 | 0.16 | 38 | 1010.8 |
| 20260509232730 | 55 | 328 | 11.0 | 19.0 | 0.00 | 0.16 | 0.16 | 43 | 1010.8 |
| 20260509232224 | 55 | 343 | 8.0 | 16.0 | 0.00 | 0.16 | 0.16 | 38 | 1010.7 |
| 20260509231718 | 56 | 308 | 6.0 | 16.0 | 0.00 | 0.16 | 0.16 | 37 | 1010.7 |
| 20260509231212 | 56 | 330 | 5.0 | 16.0 | 0.00 | 0.16 | 0.16 | 33 | 1010.6 |
| 20260509230706 | 56 | 314 | 5.0 | 14.0 | 0.00 | 0.16 | 0.16 | 33 | 1010.5 |
| 20260509230200 | 56 | 317 | 5.0 | 13.0 | 0.00 | 0.16 | 0.16 | 35 | 1010.5 |
| 20260509225925 | 56 | 350 | 5.0 | 11.0 | 0.00 | 0.16 | 0.16 | 35 | 1010.5 |
| 20260509225148 | 56 | 320 | 5.0 | 11.0 | 0.00 | 0.16 | 0.16 | 34 | 1010.5 |
| 20260509224912 | 57 | 248 | 5.0 | 11.0 | 0.00 | 0.16 | 0.16 | 33 | 1010.5 |
| 20260509224136 | 57 | 300 | 5.0 | 13.0 | 0.00 | 0.16 | 0.16 | 33 | 1010.4 |
| 20260509223902 | 57 | 342 | 5.0 | 13.0 | 0.00 | 0.16 | 0.16 | 33 | 1010.4 |
| 20260509223124 | 57 | 319 | 6.0 | 13.0 | 0.00 | 0.16 | 0.16 | 33 | 1010.3 |
| 20260509222849 | 57 | 326 | 6.0 | 17.0 | 0.00 | 0.16 | 0.16 | 34 | 1010.2 |
| 20260509222342 | 56 | 327 | 6.0 | 17.0 | 0.00 | 0.16 | 0.16 | 36 | 1010.2 |
| 20260509221606 | 55 | 326 | 6.0 | 16.0 | 0.00 | 0.16 | 0.16 | 34 | 1010.3 |
| 20260509221100 | 56 | 291 | 6.0 | 16.0 | 0.00 | 0.16 | 0.16 | 34 | 1010.1 |
| 20260509220553 | 55 | 314 | 3.0 | 10.0 | 0.00 | 0.16 | 0.16 | 34 | 1010.1 |
| 20260509220048 | 55 | 311 | 5.0 | 18.0 | 0.00 | 0.16 | 0.16 | 35 | 1010.0 |
| 20260509215542 | 55 | 355 | 10.0 | 21.0 | 0.00 | 0.16 | 0.16 | 34 | 1010.0 |
| 20260509215036 | 55 | 334 | 11.0 | 22.0 | 0.00 | 0.16 | 0.16 | 36 | 1010.0 |
| 20260509214530 | 55 | 321 | 8.0 | 22.0 | 0.00 | 0.16 | 0.16 | 36 | 1010.1 |
| 20260509214023 | 55 | 323 | 8.0 | 20.0 | 0.00 | 0.16 | 0.16 | 35 | 1010.0 |
| 20260509213518 | 56 | 325 | 12.0 | 19.0 | 0.00 | 0.16 | 0.16 | 39 | 1009.9 |
| 20260509213012 | 55 | 307 | 9.0 | 19.0 | 0.00 | 0.16 | 0.16 | 42 | 1010.0 |
| 20260509212506 | 56 | 5 | 7.0 | 17.0 | 0.00 | 0.16 | 0.16 | 35 | 1009.9 |
| 20260509212231 | 56 | 349 | 7.0 | 17.0 | 0.00 | 0.16 | 0.16 | 34 | 1009.8 |
| 20260509211454 | 56 | 356 | 7.0 | 17.0 | 0.00 | 0.16 | 0.16 | 35 | 1009.9 |
| 20260509210948 | 56 | 339 | 8.0 | 26.0 | 0.00 | 0.16 | 0.16 | 35 | 1009.6 |
| 20260509210442 | 56 | 340 | 8.0 | 26.0 | 0.00 | 0.16 | 0.16 | 37 | 1009.5 |
| 20260509205936 | 55 | 338 | 7.0 | 15.0 | 0.00 | 0.16 | 0.16 | 33 | 1009.6 |
| 20260509205700 | 56 | 3 | 7.0 | 16.0 | 0.00 | 0.16 | 0.16 | 33 | 1009.9 |
| 20260509204924 | 56 | 307 | 8.0 | 18.0 | 0.00 | 0.16 | 0.16 | 38 | 1009.6 |
| 20260509204418 | 55 | 345 | 9.0 | 22.0 | 0.00 | 0.16 | 0.16 | 34 | 1009.8 |
| 20260509203911 | 56 | 273 | 8.0 | 22.0 | 0.00 | 0.16 | 0.16 | 35 | 1009.8 |
| 20260509203411 | 56 | 33 | 6.0 | 20.0 | 0.00 | 0.16 | 0.16 | 35 | 1009.5 |
| 20260509202911 | 56 | 283 | 8.0 | 20.0 | 0.00 | 0.16 | 0.16 | 37 | 1009.4 |
| 20260509202412 | 55 | 333 | 8.0 | 17.0 | 0.00 | 0.16 | 0.16 | 36 | 1009.5 |
| 20260509201911 | 56 | 345 | 7.0 | 20.0 | 0.00 | 0.16 | 0.16 | 38 | 1009.6 |
| 20260509201411 | 55 | 307 | 8.0 | 20.0 | 0.00 | 0.16 | 0.16 | 36 | 1009.4 |
| 20260509200912 | 56 | 348 | 6.0 | 18.0 | 0.00 | 0.16 | 0.16 | 42 | 1009.4 |
| 20260509200642 | 56 | 294 | 6.0 | 14.0 | 0.00 | 0.16 | 0.16 | 36 | 1009.3 |
| 20260509195912 | 56 | 300 | 6.0 | 16.0 | 0.00 | 0.16 | 0.16 | 37 | 1009.4 |
| 20260509195641 | 56 | 344 | 3.0 | 16.0 | 0.00 | 0.16 | 0.16 | 39 | 1009.3 |
| 20260509194911 | 56 | 256 | 4.0 | 14.0 | 0.00 | 0.16 | 0.16 | 38 | 1009.3 |
| 20260509194412 | 56 | 315 | 5.0 | 13.0 | 0.00 | 0.16 | 0.16 | 39 | 1009.1 |
| 20260509193911 | 55 | 344 | 6.0 | 17.0 | 0.00 | 0.16 | 0.16 | 39 | 1009.2 |
| 20260509193410 | 56 | 317 | 7.0 | 17.0 | 0.00 | 0.16 | 0.16 | 40 | 1009.3 |
| 20260509192911 | 55 | 349 | 7.0 | 17.0 | 0.00 | 0.16 | 0.16 | 41 | 1009.1 |
| 20260509192412 | 55 | 337 | 6.0 | 17.0 | 0.00 | 0.16 | 0.16 | 39 | 1009.1 |
| 20260509191912 | 55 | 331 | 7.0 | 17.0 | 0.00 | 0.16 | 0.16 | 40 | 1009.0 |
| 20260509191406 | 55 | 328 | 7.0 | 19.0 | 0.00 | 0.16 | 0.16 | 40 | 1009.0 |
| 20260509190900 | 55 | 331 | 6.0 | 19.0 | 0.00 | 0.16 | 0.16 | 42 | 1008.9 |
| 20260509190356 | 55 | 274 | 6.0 | 16.0 | 0.00 | 0.16 | 0.16 | 40 | 1008.9 |
| 20260509185854 | 55 | 349 | 6.0 | 16.0 | 0.00 | 0.16 | 0.16 | 42 | 1008.8 |
| 20260509185355 | 54 | 304 | 8.0 | 17.0 | 0.00 | 0.16 | 0.16 | 41 | 1008.8 |
| 20260509184855 | 54 | 311 | 9.0 | 18.0 | 0.00 | 0.16 | 0.16 | 42 | 1008.9 |
| 20260509184355 | 54 | 22 | 8.0 | 18.0 | 0.00 | 0.16 | 0.16 | 42 | 1008.8 |
| 20260509183855 | 55 | 352 | 6.0 | 16.0 | 0.00 | 0.16 | 0.16 | 40 | 1008.9 |
| 20260509183355 | 55 | 335 | 6.0 | 17.0 | 0.00 | 0.16 | 0.16 | 40 | 1008.8 |
| 20260509182855 | 54 | 131 | 7.0 | 17.0 | 0.00 | 0.16 | 0.16 | 46 | 1008.8 |
| 20260509182356 | 54 | 335 | 5.0 | 13.0 | 0.00 | 0.16 | 0.16 | 42 | 1008.8 |
| 20260509181854 | 55 | 295 | 6.0 | 14.0 | 0.00 | 0.16 | 0.16 | 40 | 1008.8 |
| 20260509181356 | 54 | 337 | 9.0 | 18.0 | 0.00 | 0.16 | 0.16 | 44 | 1008.7 |
| 20260509180850 | 53 | 338 | 8.0 | 19.0 | 0.00 | 0.16 | 0.16 | 41 | 1008.6 |
| 20260509180351 | 54 | 329 | 6.0 | 19.0 | 0.00 | 0.16 | 0.16 | 41 | 1008.7 |
| 20260509175852 | 54 | 2 | 7.0 | 13.0 | 0.00 | 0.16 | 0.16 | 44 | 1008.6 |
| 20260509175351 | 53 | 349 | 8.0 | 17.0 | 0.00 | 0.16 | 0.16 | 40 | 1008.5 |
| 20260509175124 | 53 | 309 | 7.0 | 17.0 | 0.00 | 0.16 | 0.16 | 43 | 1008.5 |
| 20260509174350 | 53 | 248 | 8.0 | 18.0 | 0.00 | 0.16 | 0.16 | 43 | 1008.5 |
| 20260509173852 | 53 | 334 | 8.0 | 18.0 | 0.00 | 0.16 | 0.16 | 43 | 1008.5 |
| 20260509173351 | 53 | 359 | 9.0 | 21.0 | 0.00 | 0.16 | 0.16 | 44 | 1008.3 |
| 20260509172852 | 53 | 340 | 11.0 | 21.0 | 0.00 | 0.16 | 0.16 | 47 | 1008.2 |
| 20260509172348 | 53 | 358 | 11.0 | 18.0 | 0.00 | 0.16 | 0.16 | 49 | 1008.2 |
| 20260509171846 | 53 | 340 | 9.0 | 18.0 | 0.00 | 0.16 | 0.16 | 44 | 1008.1 |
| 20260509171348 | 53 | 340 | 6.0 | 18.0 | 0.00 | 0.16 | 0.16 | 44 | 1008.1 |
| 20260509170846 | 53 | 1 | 9.0 | 18.0 | 0.00 | 0.16 | 0.16 | 43 | 1008.1 |
| 20260509170348 | 52 | 322 | 11.0 | 22.0 | 0.00 | 0.16 | 0.16 | 43 | 1008.1 |
| 20260509165846 | 52 | 307 | 13.0 | 22.0 | 0.00 | 0.16 | 0.16 | 42 | 1007.9 |
| 20260509165348 | 52 | 348 | 11.0 | 20.0 | 0.00 | 0.16 | 0.16 | 43 | 1007.9 |
| 20260509164846 | 53 | 346 | 8.0 | 20.0 | 0.00 | 0.16 | 0.16 | 42 | 1007.9 |
| 20260509164349 | 53 | 342 | 7.0 | 18.0 | 0.00 | 0.16 | 0.16 | 41 | 1007.7 |
| 20260509163848 | 53 | 347 | 7.0 | 17.0 | 0.00 | 0.16 | 0.16 | 44 | 1007.7 |
| 20260509163348 | 53 | 326 | 6.0 | 16.0 | 0.00 | 0.16 | 0.16 | 43 | 1007.7 |
| 20260509162848 | 53 | 345 | 6.0 | 16.0 | 0.00 | 0.16 | 0.16 | 41 | 1007.6 |
| 20260509162621 | 52 | 297 | 6.0 | 16.0 | 0.00 | 0.16 | 0.16 | 43 | 1007.5 |
| 20260509161847 | 52 | 305 | 8.0 | 22.0 | 0.00 | 0.16 | 0.16 | 42 | 1007.5 |
| 20260509161347 | 51 | 336 | 12.0 | 22.0 | 0.00 | 0.16 | 0.16 | 46 | 1007.4 |
| 20260509160848 | 51 | 355 | 12.0 | 23.0 | 0.00 | 0.16 | 0.16 | 48 | 1007.3 |
| 20260509160350 | 51 | 338 | 10.0 | 23.0 | 0.00 | 0.16 | 0.16 | 46 | 1007.3 |
| 20260509155846 | 51 | 340 | 9.0 | 19.0 | 0.00 | 0.16 | 0.16 | 42 | 1007.3 |
| 20260509155348 | 51 | 340 | 11.0 | 20.0 | 0.00 | 0.16 | 0.16 | 43 | 1007.3 |
| 20260509154846 | 51 | 328 | 10.0 | 20.0 | 0.00 | 0.16 | 0.16 | 47 | 1007.2 |
| 20260509154347 | 51 | 349 | 10.0 | 20.0 | 0.00 | 0.16 | 0.16 | 43 | 1007.2 |